Time;durP1;ratioP1;P1;durP2;ratioP2;P2;SDS_P1;SDS_P2;PMS_P1;PMS_P2;Temp;Humidity;BMP_temperature;BMP_pressure;BME280_temperature;BME280_humidity;BME280_pressure;Samples;Min_cycle;Max_cycle;Signal;HPM_P1;HPM_P2
2021/11/22 00:02:05;;;;;;;7.03;1.35;;;;;;;-142.75;100.00;78493.97;4996578;28;20420;-73
2021/11/22 00:04:30;;;;;;;4.50;1.10;;;;;;;-142.75;100.00;78491.97;4997525;28;20046;-72
2021/11/22 00:06:56;;;;;;;4.72;1.05;;;;;;;-142.75;100.00;78491.97;4995863;28;20029;-73
2021/11/22 00:09:22;;;;;;;3.13;1.10;;;;;;;-142.75;100.00;78491.97;4997708;28;20050;-72
2021/11/22 00:11:49;;;;;;;4.80;1.05;;;;;;;-142.75;100.00;78503.81;4995839;28;20022;-73
2021/11/22 00:14:15;;;;;;;3.47;0.93;;;;;;;-142.75;100.00;78507.75;4997067;28;20137;-73
2021/11/22 00:16:41;;;;;;;3.70;1.20;;;;;;;-142.75;100.00;78515.63;4996939;28;20033;-73
2021/11/22 00:19:06;;;;;;;5.88;1.05;;;;;;;-142.75;100.00;78517.59;4996737;28;20512;-73
2021/11/22 00:21:32;;;;;;;12.77;1.52;;;;;;;-142.75;100.00;78535.31;4994875;28;20034;-74
2021/11/22 00:23:57;;;;;;;5.28;1.20;;;;;;;-142.75;100.00;78541.22;4996016;28;20026;-73
2021/11/22 00:26:22;;;;;;;4.53;0.90;;;;;;;-142.75;100.00;78539.25;4996090;28;20045;-73
2021/11/22 00:28:47;;;;;;;4.25;1.00;;;;;;;-142.75;100.00;78545.16;4996449;28;20027;-74
2021/11/22 00:31:13;;;;;;;6.10;1.10;;;;;;;-142.75;100.00;78555.00;4995928;28;20026;-73
2021/11/22 00:33:41;;;;;;;4.10;0.90;;;;;;;-142.75;100.00;78570.75;4998715;28;20050;-73
2021/11/22 00:36:07;;;;;;;6.07;1.23;;;;;;;-142.75;100.00;78582.59;4997878;28;20068;-73
2021/11/22 00:38:32;;;;;;;5.07;0.88;;;;;;;-142.75;100.00;78586.53;4999448;28;20023;-74
2021/11/22 00:40:58;;;;;;;3.90;0.93;;;;;;;-142.75;100.00;78594.41;4997591;28;20038;-72
2021/11/22 00:43:23;;;;;;;5.70;1.43;;;;;;;-142.75;100.00;78612.13;4999959;28;20030;-73
2021/11/22 00:45:50;;;;;;;4.50;1.53;;;;;;;-142.75;100.00;78620.00;4998509;28;20784;-74
2021/11/22 00:48:20;;;;;;;6.40;0.93;;;;;;;-142.75;100.00;78618.03;4998678;28;20301;-73
2021/11/22 00:50:45;;;;;;;6.50;1.17;;;;;;;-142.75;100.00;78625.91;4999457;28;20023;-73
2021/11/22 00:53:10;;;;;;;3.92;0.75;;;;;;;-142.75;100.00;78637.72;4998161;28;20026;-73
2021/11/22 00:55:35;;;;;;;3.75;0.88;;;;;;;-142.75;100.00;78649.53;4999123;28;20030;-73
2021/11/22 00:58:01;;;;;;;4.47;1.33;;;;;;;-142.75;100.00;78651.50;4999084;28;20038;-73
2021/11/22 01:00:27;;;;;;;4.97;1.00;;;;;;;-142.75;100.00;78651.50;4996711;28;20274;-71
2021/11/22 01:02:53;;;;;;;4.90;1.00;;;;;;;-142.75;100.00;78645.59;4997842;28;20272;-73
2021/11/22 01:05:19;;;;;;;3.88;0.82;;;;;;;-142.75;100.00;78653.47;4999210;28;20026;-73
2021/11/22 01:07:44;;;;;;;6.80;1.38;;;;;;;-142.75;100.00;78659.38;4996723;28;20069;-73
2021/11/22 01:10:10;;;;;;;4.97;1.00;;;;;;;-142.75;100.00;78669.25;4997095;28;20026;-73
2021/11/22 01:12:36;;;;;;;5.40;0.90;;;;;;;-142.75;100.00;78661.34;4998463;28;20025;-73
2021/11/22 01:15:06;;;;;;;5.63;0.90;;;;;;;-142.75;100.00;78661.34;4997258;28;20035;-73
2021/11/22 01:17:31;;;;;;;3.47;1.13;;;;;;;-142.75;100.00;78667.25;4996376;28;20034;-72
2021/11/22 01:19:57;;;;;;;6.57;1.08;;;;;;;-142.75;100.00;78665.28;4995541;28;20033;-72
2021/11/22 01:22:23;;;;;;;3.08;0.75;;;;;;;-142.75;100.00;78657.41;4996240;28;20026;-73
2021/11/22 01:24:50;;;;;;;2.47;0.80;;;;;;;-142.75;100.00;78659.38;4995339;28;20087;-72
2021/11/22 01:27:15;;;;;;;;;;;;;;;-142.75;100.00;78661.34;4996785;28;20033;-73
2021/11/22 01:29:41;;;;;;;3.07;0.80;;;;;;;-142.75;100.00;78671.22;4995183;28;19949;-73
2021/11/22 01:32:07;;;;;;;2.83;0.50;;;;;;;-142.75;100.00;78692.88;4997369;28;20027;-73
2021/11/22 01:34:32;;;;;;;5.28;1.10;;;;;;;-142.75;100.00;78704.69;4997122;28;20053;-74
2021/11/22 01:36:58;;;;;;;6.38;1.30;;;;;;;-142.75;100.00;78710.59;4997345;28;20041;-73
2021/11/22 01:39:24;;;;;;;6.22;1.00;;;;;;;-142.75;100.00;78704.69;4997674;28;20419;-72
2021/11/22 01:41:50;;;;;;;;;;;;;;;-142.75;100.00;78708.63;4996224;28;20027;-71
2021/11/22 01:44:15;;;;;;;7.23;0.97;;;;;;;-142.75;100.00;78720.44;4997587;28;19932;-74
2021/11/22 01:46:41;;;;;;;4.03;0.90;;;;;;;-142.75;100.00;78728.31;4998223;28;20502;-73
2021/11/22 01:49:06;;;;;;;4.70;1.10;;;;;;;-142.75;100.00;78746.03;4996116;28;20480;-73
2021/11/22 01:51:32;;;;;;;4.53;1.10;;;;;;;-142.75;100.00;78742.09;4995556;28;20085;-73
2021/11/22 01:53:58;;;;;;;5.95;0.98;;;;;;;-142.75;100.00;78744.09;4995382;28;20492;-74
2021/11/22 01:56:25;;;;;;;6.97;1.10;;;;;;;-142.75;100.00;78771.66;4980217;28;20036;-72
2021/11/22 01:58:51;;;;;;;5.63;1.00;;;;;;;-142.75;100.00;78779.53;4997783;28;20025;-72
2021/11/22 02:01:16;;;;;;;5.63;1.00;;;;;;;-142.75;100.00;78771.66;4996547;28;20030;-73
2021/11/22 02:03:42;;;;;;;6.32;1.58;;;;;;;-142.75;100.00;78777.56;4997285;28;20044;-73
2021/11/22 02:06:08;;;;;;;3.20;0.77;;;;;;;-142.75;100.00;78789.38;4997572;28;20804;-73
2021/11/22 02:08:33;;;;;;;6.07;1.27;;;;;;;-142.75;100.00;78793.31;4996537;28;20035;-73
2021/11/22 02:10:59;;;;;;;8.85;1.20;;;;;;;-142.75;100.00;78787.41;4996198;28;20058;-73
2021/11/22 02:13:25;;;;;;;6.90;1.48;;;;;;;-142.75;100.00;78797.25;4998099;28;20098;-71
2021/11/22 02:15:51;;;;;;;5.38;1.30;;;;;;;-142.75;100.00;78809.06;4997148;28;20121;-72
2021/11/22 02:18:18;;;;;;;7.43;1.60;;;;;;;-142.75;100.00;78803.16;4997808;28;20030;-73
2021/11/22 02:20:45;;;;;;;4.27;1.20;;;;;;;-142.75;100.00;78779.53;4997152;28;20546;-73
2021/11/22 02:23:11;;;;;;;4.70;1.00;;;;;;;-142.75;100.00;78785.44;4996576;28;20022;-73
2021/11/22 02:25:39;;;;;;;;;;;;;;;-142.75;100.00;78787.41;4997340;28;20026;-74
2021/11/22 02:28:06;;;;;;;5.57;1.20;;;;;;;-142.75;100.00;78795.28;4997262;28;19930;-73
2021/11/22 02:30:35;;;;;;;6.07;1.43;;;;;;;-142.75;100.00;78795.28;4995864;28;20079;-73
2021/11/22 02:33:05;;;;;;;4.80;1.10;;;;;;;-142.75;100.00;78811.03;4997639;28;20452;-73
2021/11/22 02:35:33;;;;;;;5.00;1.23;;;;;;;-142.75;100.00;78813.00;4997330;28;20498;-72
2021/11/22 02:37:58;;;;;;;6.93;1.30;;;;;;;-142.75;100.00;78805.13;4997431;28;20037;-73
2021/11/22 02:40:23;;;;;;;7.07;1.25;;;;;;;-142.75;100.00;78814.97;4996925;28;20026;-73
2021/11/22 02:42:49;;;;;;;9.45;1.33;;;;;;;-142.75;100.00;78811.03;4997280;28;20019;-71
2021/11/22 02:45:17;;;;;;;9.75;1.70;;;;;;;-142.75;100.00;78809.06;4998040;28;20038;-73
2021/11/22 02:47:44;;;;;;;6.33;1.10;;;;;;;-142.75;100.00;78811.03;4996843;28;20026;-73
2021/11/22 02:50:11;;;;;;;8.90;1.60;;;;;;;-142.75;100.00;78811.03;4995711;28;20026;-73
2021/11/22 02:52:37;;;;;;;5.00;1.43;;;;;;;-142.75;100.00;78813.00;4996134;28;20567;-73
2021/11/22 02:55:04;;;;;;;4.50;1.35;;;;;;;-142.75;100.00;78826.81;4996764;28;20109;-73
2021/11/22 02:57:30;;;;;;;7.20;1.20;;;;;;;-142.75;100.00;78822.88;4996901;28;20059;-73
2021/11/22 02:59:55;;;;;;;6.18;1.30;;;;;;;-142.75;100.00;78822.88;4996595;28;20105;-73
2021/11/22 03:02:20;;;;;;;4.35;1.40;;;;;;;-142.75;100.00;78830.75;4996890;28;20107;-71
2021/11/22 03:04:46;;;;;;;6.22;1.42;;;;;;;-142.75;100.00;78824.84;4997964;28;20113;-72
2021/11/22 03:07:12;;;;;;;4.70;1.40;;;;;;;-142.75;100.00;78830.75;4997163;28;20046;-73
2021/11/22 03:09:38;;;;;;;11.65;1.45;;;;;;;-142.75;100.00;78820.88;4997849;28;20514;-71
2021/11/22 03:12:05;;;;;;;;;;;;;;;-142.75;100.00;78848.47;4997828;28;20030;-74
2021/11/22 03:14:32;;;;;;;5.80;1.40;;;;;;;-142.75;100.00;78862.25;4998236;28;19914;-72
2021/11/22 03:16:58;;;;;;;6.07;1.20;;;;;;;-142.75;100.00;78852.41;4997370;28;20101;-73
2021/11/22 03:19:24;;;;;;;3.22;0.98;;;;;;;-142.75;100.00;78852.41;4997602;28;20057;-72
2021/11/22 03:21:50;;;;;;;8.18;1.40;;;;;;;-142.75;100.00;78854.38;4994074;28;20038;-72
2021/11/22 03:24:15;;;;;;;7.88;1.30;;;;;;;-142.75;100.00;78878.00;4993719;28;20048;-73
2021/11/22 03:26:41;;;;;;;9.38;1.45;;;;;;;-142.75;100.00;78883.91;4994193;28;20030;-73
2021/11/22 03:29:06;;;;;;;7.10;1.55;;;;;;;-142.75;100.00;78879.97;4991065;28;20054;-72
2021/11/22 03:31:33;;;;;;;6.80;1.33;;;;;;;-142.75;100.00;78881.94;4994085;28;20026;-73
2021/11/22 03:33:59;;;;;;;6.72;1.65;;;;;;;-142.75;100.00;78883.91;4994370;28;20227;-73
2021/11/22 03:36:25;;;;;;;7.90;1.30;;;;;;;-142.75;100.00;78893.78;4994873;28;20023;-73
2021/11/22 03:38:50;;;;;;;8.20;1.50;;;;;;;-142.75;100.00;78881.94;4995929;28;20025;-71
2021/11/22 03:41:17;;;;;;;10.35;1.42;;;;;;;-142.75;100.00;78899.69;4996000;28;20041;-73
2021/11/22 03:43:54;;;;;;;3.97;1.27;;;;;;;-142.75;100.00;78897.72;4995651;28;20027;-73
2021/11/22 03:46:20;;;;;;;14.87;1.90;;;;;;;-142.75;100.00;78903.63;5004174;23;20168;-67
2021/11/22 03:48:47;;;;;;;6.03;1.13;;;;;;;-142.75;100.00;78901.66;4984426;28;20531;-67
2021/11/22 03:51:12;;;;;;;;;;;;;;;-142.75;100.00;78893.78;4986489;28;20422;-67
2021/11/22 03:53:38;;;;;;;4.10;1.03;;;;;;;-142.75;100.00;78901.66;4985619;28;19921;-67
2021/11/22 03:56:04;;;;;;;10.13;1.42;;;;;;;-142.75;100.00;78897.72;4985712;28;20406;-66
2021/11/22 03:58:29;;;;;;;6.40;1.60;;;;;;;-142.75;100.00;78893.78;4986558;28;20026;-67
2021/11/22 04:00:54;;;;;;;4.03;1.05;;;;;;;-142.75;100.00;78927.25;4984701;28;20084;-67
2021/11/22 04:03:20;;;;;;;5.50;1.50;;;;;;;-142.75;100.00;78943.00;4986649;28;20030;-66
2021/11/22 04:05:45;;;;;;;5.28;1.13;;;;;;;-142.75;100.00;78943.00;4987077;28;20053;-67
2021/11/22 04:08:11;;;;;;;3.50;0.93;;;;;;;-142.75;100.00;78941.03;4989691;28;20030;-68
2021/11/22 04:10:37;;;;;;;7.70;1.27;;;;;;;-142.75;100.00;78948.91;4989215;28;20026;-67
2021/11/22 04:13:03;;;;;;;;;;;;;;;-142.75;100.00;78952.84;4988955;28;20309;-67
2021/11/22 04:15:28;;;;;;;4.00;1.03;;;;;;;-142.75;100.00;78944.97;4989146;28;19949;-68
2021/11/22 04:17:54;;;;;;;8.00;2.22;;;;;;;-142.75;100.00;78944.97;4987829;28;20432;-67
2021/11/22 04:20:19;;;;;;;8.13;1.23;;;;;;;-142.75;100.00;78952.84;4989164;28;20022;-67
2021/11/22 04:22:45;;;;;;;6.75;2.05;;;;;;;-142.75;100.00;78976.50;4990069;28;20027;-67
2021/11/22 04:25:10;;;;;;;6.70;1.35;;;;;;;-142.75;100.00;78956.78;4989682;28;20053;-67
2021/11/22 04:27:36;;;;;;;7.20;1.30;;;;;;;-142.75;100.00;78962.69;4989589;28;20058;-67
2021/11/22 04:30:05;;;;;;;6.53;1.25;;;;;;;-142.75;100.00;78956.78;4988822;28;20105;-67
2021/11/22 04:32:30;;;;;;;6.17;1.90;;;;;;;-142.75;100.00;78964.69;4989636;28;20030;-67
2021/11/22 04:34:55;;;;;;;6.82;1.00;;;;;;;-142.75;100.00;79009.97;4989438;28;20033;-67
2021/11/22 04:37:25;;;;;;;7.95;0.90;;;;;;;-142.75;100.00;79013.91;4989433;28;20143;-67
2021/11/22 04:39:50;;;;;;;3.00;0.83;;;;;;;-142.75;100.00;79017.84;4988738;28;20395;-66
2021/11/22 04:42:16;;;;;;;6.27;1.30;;;;;;;-142.75;100.00;79017.84;4989729;28;20026;-68
2021/11/22 04:44:41;;;;;;;7.83;1.17;;;;;;;-142.75;100.00;79027.69;4988094;28;20277;-67
2021/11/22 04:47:09;;;;;;;5.72;1.08;;;;;;;-142.75;100.00;79025.72;4989236;28;20022;-67
2021/11/22 04:49:35;;;;;;;5.37;1.17;;;;;;;-142.75;100.00;79015.88;4989241;28;20018;-67
2021/11/22 04:52:01;;;;;;;5.43;1.02;;;;;;;-142.75;100.00;79019.81;4988502;28;20041;-67
2021/11/22 04:54:26;;;;;;;9.77;1.33;;;;;;;-142.75;100.00;79019.81;4988016;28;20117;-67
2021/11/22 04:56:51;;;;;;;8.30;1.40;;;;;;;-142.75;100.00;79027.69;4989200;28;20097;-66
2021/11/22 04:59:16;;;;;;;9.98;1.10;;;;;;;-142.75;100.00;79035.59;4989384;28;20084;-67
2021/11/22 05:01:42;;;;;;;5.97;1.40;;;;;;;-142.75;100.00;79035.59;4988473;28;20022;-67
2021/11/22 05:04:07;;;;;;;5.15;1.05;;;;;;;-142.75;100.00;79031.66;4989123;28;20022;-67
2021/11/22 05:06:32;;;;;;;7.85;1.27;;;;;;;-142.75;100.00;79023.75;4988978;28;20490;-67
2021/11/22 05:08:58;;;;;;;4.63;1.37;;;;;;;-142.75;100.00;79019.81;4989031;28;20026;-67
2021/11/22 05:11:23;;;;;;;6.20;1.33;;;;;;;-142.75;100.00;79019.81;4988305;28;20724;-66
2021/11/22 05:13:48;;;;;;;8.17;1.13;;;;;;;-142.75;100.00;79035.59;4988918;28;20026;-68
2021/11/22 05:16:14;;;;;;;10.70;1.20;;;;;;;-142.75;100.00;79039.53;4989216;28;20269;-67
2021/11/22 05:18:39;;;;;;;6.47;0.80;;;;;;;-142.75;100.00;79047.41;4988506;28;20269;-67
2021/11/22 05:21:04;;;;;;;3.38;0.98;;;;;;;-142.75;100.00;79051.34;4986742;28;20476;-67
2021/11/22 05:23:29;;;;;;;6.68;1.20;;;;;;;-142.75;100.00;79057.25;4988906;28;20030;-68
2021/11/22 05:25:55;;;;;;;4.63;1.20;;;;;;;-142.75;100.00;79055.28;4989021;28;20030;-67
2021/11/22 05:28:21;;;;;;;3.67;1.63;;;;;;;-142.75;100.00;79059.22;4988627;28;20285;-66
2021/11/22 05:30:47;;;;;;;8.47;1.07;;;;;;;-142.75;100.00;79082.84;4988190;28;20084;-67
2021/11/22 05:33:12;;;;;;;9.75;1.60;;;;;;;-142.75;100.00;79122.25;4988012;28;20476;-67
2021/11/22 05:35:38;;;;;;;6.45;1.20;;;;;;;-142.75;100.00;79128.16;4988325;28;20026;-67
2021/11/22 05:38:04;;;;;;;4.63;0.93;;;;;;;-142.75;100.00;79132.09;4986923;28;20548;-67
2021/11/22 05:40:29;;;;;;;6.55;1.08;;;;;;;-142.75;100.00;79130.13;4987693;28;20108;-67
2021/11/22 05:42:54;;;;;;;5.78;1.00;;;;;;;-142.75;100.00;79130.13;4988335;28;20109;-67
2021/11/22 05:45:20;;;;;;;3.08;1.08;;;;;;;-142.75;100.00;79138.00;4988396;28;20022;-66
2021/11/22 05:47:46;;;;;;;5.47;1.20;;;;;;;-142.75;100.00;79141.94;4988262;28;20034;-67
2021/11/22 05:50:12;;;;;;;8.30;1.10;;;;;;;-142.75;100.00;79147.84;4987513;28;20502;-67
2021/11/22 05:52:39;;;;;;;7.85;1.10;;;;;;;-142.75;100.00;79151.78;4988364;28;20034;-67
2021/11/22 05:55:15;;;;;;;8.40;1.37;;;;;;;-142.75;100.00;79153.75;4988332;28;20403;-67
2021/11/22 05:57:41;;;;;;;6.65;1.08;;;;;;;-142.75;100.00;79159.69;4988173;28;20136;-67
2021/11/22 06:00:08;;;;;;;4.25;1.02;;;;;;;-142.75;100.00;79165.59;4987608;28;20109;-67
2021/11/22 06:02:33;;;;;;;3.93;1.10;;;;;;;-142.75;100.00;79159.69;4988029;28;20107;-67
2021/11/22 06:04:59;;;;;;;4.55;1.33;;;;;;;-142.75;100.00;79149.81;4986936;28;20508;-67
2021/11/22 06:07:24;;;;;;;5.13;1.00;;;;;;;-142.75;100.00;79161.66;4988120;28;20572;-66
2021/11/22 06:09:49;;;;;;;7.13;1.63;;;;;;;-142.75;100.00;79169.53;4987235;28;20293;-67
2021/11/22 06:12:15;;;;;;;5.28;1.17;;;;;;;-142.75;100.00;79161.66;4988319;28;20022;-67
2021/11/22 06:14:40;;;;;;;4.67;1.17;;;;;;;-142.75;100.00;79169.53;4988011;28;20023;-67
2021/11/22 06:17:05;;;;;;;6.50;1.83;;;;;;;-142.75;100.00;79181.34;4986750;28;20399;-67
2021/11/22 06:19:31;;;;;;;10.18;1.58;;;;;;;-142.75;100.00;79185.28;4987880;28;20018;-67
2021/11/22 06:21:56;;;;;;;5.35;1.10;;;;;;;-142.75;100.00;79175.44;4987286;28;20487;-66
2021/11/22 06:24:23;;;;;;;6.07;1.17;;;;;;;-142.75;100.00;79161.66;4987940;28;20031;-66
2021/11/22 06:26:50;;;;;;;8.50;1.40;;;;;;;-142.75;100.00;79179.38;4987773;28;20274;-67
2021/11/22 06:29:17;;;;;;;14.67;1.63;;;;;;;-142.75;100.00;79175.44;4987099;28;20022;-66
2021/11/22 06:31:42;;;;;;;6.93;1.43;;;;;;;-142.75;100.00;79169.53;4987074;28;20071;-67
2021/11/22 06:34:07;;;;;;;5.03;1.45;;;;;;;-142.75;100.00;79175.44;4987643;28;21033;-68
2021/11/22 06:36:32;;;;;;;6.83;1.50;;;;;;;-142.75;100.00;79185.28;4987676;28;20460;-67
2021/11/22 06:38:58;;;;;;;4.10;1.20;;;;;;;-142.75;100.00;79187.25;4987686;28;20280;-67
2021/11/22 06:41:23;;;;;;;3.38;1.17;;;;;;;-142.75;100.00;79195.13;4986788;28;20048;-66
2021/11/22 06:43:48;;;;;;;4.60;0.90;;;;;;;-142.75;100.00;79189.22;4987646;28;20022;-67
2021/11/22 06:46:14;;;;;;;4.18;1.13;;;;;;;-142.75;100.00;79189.22;4986547;28;20402;-67
2021/11/22 06:48:39;;;;;;;5.82;1.40;;;;;;;-142.75;100.00;79189.22;4987342;28;20026;-67
2021/11/22 06:51:04;;;;;;;7.77;1.30;;;;;;;-142.75;100.00;79189.22;4986748;28;20030;-66
2021/11/22 06:53:30;;;;;;;6.70;1.08;;;;;;;-142.75;100.00;79187.25;4987498;28;20273;-67
2021/11/22 06:55:55;;;;;;;6.75;1.52;;;;;;;-142.75;100.00;79189.22;4987386;28;20022;-66
2021/11/22 06:58:20;;;;;;;4.13;1.10;;;;;;;-142.75;100.00;79195.13;4987226;28;20078;-66
2021/11/22 07:00:46;;;;;;;8.80;1.73;;;;;;;-142.75;100.00;79208.91;4986893;28;20276;-67
2021/11/22 07:03:11;;;;;;;7.10;1.77;;;;;;;-142.75;100.00;79236.50;4986035;28;20280;-66
2021/11/22 07:05:37;;;;;;;9.82;1.55;;;;;;;-142.75;100.00;79224.69;4987353;28;20113;-67
2021/11/22 07:08:05;;;;;;;4.68;1.60;;;;;;;-142.75;100.00;79228.63;4987154;28;20502;-68
2021/11/22 07:10:30;;;;;;;9.30;1.50;;;;;;;-142.75;100.00;79232.56;4983062;28;20038;-66
2021/11/22 07:12:56;;;;;;;5.78;1.40;;;;;;;-142.75;100.00;79252.25;4986185;28;20030;-67
2021/11/22 07:15:22;;;;;;;9.57;1.60;;;;;;;-142.75;100.00;79254.22;4986417;28;20053;-67
2021/11/22 07:17:51;;;;;;;8.30;1.70;;;;;;;-142.75;100.00;79260.13;4986385;28;20038;-66
2021/11/22 07:20:17;;;;;;;5.77;1.77;;;;;;;-142.75;100.00;79256.19;4984581;28;20098;-66
2021/11/22 07:22:43;;;;;;;4.03;1.00;;;;;;;-142.75;100.00;79269.97;4986319;28;20077;-66
2021/11/22 07:25:09;;;;;;;5.18;1.35;;;;;;;-142.75;100.00;79291.66;4985984;28;20513;-66
2021/11/22 07:27:35;;;;;;;6.72;1.38;;;;;;;-142.75;100.00;79277.88;4985825;28;20033;-67
2021/11/22 07:30:03;;;;;;;4.35;1.15;;;;;;;-142.75;100.00;79273.91;4985449;28;20191;-66
2021/11/22 07:32:29;;;;;;;5.40;1.27;;;;;;;-142.75;100.00;79262.09;4984702;28;20416;-67
2021/11/22 07:34:55;;;;;;;6.60;1.50;;;;;;;-142.75;100.00;79242.41;4985980;28;20039;-66
2021/11/22 07:37:22;;;;;;;4.43;1.00;;;;;;;-142.75;100.00;79208.91;4985982;28;20487;-66
2021/11/22 07:39:47;;;;;;;;;;;;;;;-142.75;100.00;79203.00;4985490;28;20430;-66
2021/11/22 07:42:12;;;;;;;3.43;1.37;;;;;;;-142.75;100.00;79181.34;4989410;28;19913;-67
2021/11/22 07:44:39;;;;;;;3.50;1.13;;;;;;;-142.75;100.00;79161.66;4989517;28;20125;-66
2021/11/22 07:47:05;;;;;;;7.13;1.63;;;;;;;-142.75;100.00;79134.06;4989175;28;20030;-66
2021/11/22 07:49:32;;;;;;;3.38;1.17;;;;;;;-142.75;100.00;79118.31;4989283;28;20076;-67
2021/11/22 07:51:57;;;;;;;8.17;1.47;;;;;;;-142.75;100.00;79086.78;4988585;28;20407;-67
2021/11/22 07:54:23;;;;;;;5.63;1.33;;;;;;;-142.75;100.00;79063.16;4987086;28;20043;-67
2021/11/22 07:56:48;;;;;;;5.00;1.10;;;;;;;-142.75;100.00;79053.31;4989635;28;20030;-66
2021/11/22 07:59:13;;;;;;;8.05;1.52;;;;;;;-142.75;100.00;79011.94;4989461;28;20112;-70
2021/11/22 08:01:40;;;;;;;8.07;1.52;;;;;;;-142.75;100.00;78994.22;4987299;28;20079;-70
2021/11/22 08:04:12;;;;;;;6.20;1.67;;;;;;;-142.75;100.00;78948.91;4988897;28;20022;-67
2021/11/22 08:06:39;;;;;;;4.63;1.40;;;;;;;-142.75;100.00;78935.13;4989090;28;20034;-67
2021/11/22 08:09:12;;;;;;;6.63;1.90;;;;;;;-142.75;100.00;78905.59;4986931;28;20445;-66
2021/11/22 08:11:48;;;;;;;7.67;1.77;;;;;;;-142.75;100.00;78874.06;4988348;28;20034;-67
2021/11/22 08:14:13;;;;;;;5.38;1.30;;;;;;;-142.75;100.00;78848.47;4989110;28;20048;-67
2021/11/22 08:16:39;;;;;;;7.80;1.70;;;;;;;-142.75;98.93;78834.69;4988892;28;20079;-67
2021/11/22 08:19:04;;;;;;;5.60;1.20;;;;;;;-142.75;97.72;78822.88;4988960;28;21023;-65
2021/11/22 08:21:29;;;;;;;4.00;1.35;;;;;;;-142.75;96.17;78807.09;4988226;28;20027;-66
2021/11/22 08:23:55;;;;;;;7.50;1.70;;;;;;;-142.75;93.85;78755.91;4988688;28;20053;-66
2021/11/22 08:26:20;;;;;;;6.17;1.50;;;;;;;-142.75;92.30;78759.84;4987560;28;20277;-66
2021/11/22 08:28:45;;;;;;;6.10;1.27;;;;;;;-142.75;90.71;78722.41;4989149;28;20285;-66
2021/11/22 08:31:10;;;;;;;3.95;1.00;;;;;;;-142.75;88.88;78692.88;4987753;28;20048;-66
2021/11/22 08:33:36;;;;;;;12.45;1.50;;;;;;;-142.75;88.78;78716.50;4988569;28;20048;-66
2021/11/22 08:36:01;;;;;;;3.80;1.57;;;;;;;-142.75;88.74;78688.94;4987591;28;20615;-66
2021/11/22 08:38:26;;;;;;;7.27;1.57;;;;;;;-142.75;88.33;78671.22;4988300;28;20315;-65
2021/11/22 08:40:52;;;;;;;7.25;2.05;;;;;;;-142.75;88.01;78671.22;4987848;28;20576;-66
2021/11/22 08:43:17;;;;;;;6.88;1.70;;;;;;;-142.75;87.74;78669.25;4988756;28;20095;-65
2021/11/22 08:45:47;;;;;;;8.18;1.63;;;;;;;-142.75;87.96;78657.41;4988367;28;20030;-65
2021/11/22 08:48:13;;;;;;;9.20;1.93;;;;;;;-142.75;87.33;78647.56;4988423;28;20026;-65
2021/11/22 08:50:39;;;;;;;5.20;1.50;;;;;;;-142.75;87.43;78641.66;4987667;28;20064;-66
2021/11/22 08:53:04;;;;;;;7.78;2.13;;;;;;;-142.75;86.95;78621.97;4987380;28;20023;-65
2021/11/22 08:55:30;;;;;;;5.07;1.50;;;;;;;-142.75;86.77;78616.06;4988443;28;20026;-66
2021/11/22 08:57:56;;;;;;;6.75;1.85;;;;;;;-142.75;85.74;78582.59;4988148;28;20492;-66
2021/11/22 09:00:25;;;;;;;9.73;1.95;;;;;;;-142.75;85.37;78555.00;4986181;28;20114;-66
2021/11/22 09:02:52;;;;;;;5.83;1.60;;;;;;;-142.75;84.11;78545.16;4988308;28;20103;-66
2021/11/22 09:05:17;;;;;;;7.15;1.55;;;;;;;-142.75;84.97;78570.75;4984930;28;20034;-66
2021/11/22 09:07:43;;;;;;;5.85;1.50;;;;;;;-142.75;85.65;78560.91;4979231;28;20481;-66
2021/11/22 09:10:08;;;;;;;4.38;1.60;;;;;;;-142.75;85.10;78529.41;4977969;28;20034;-65
2021/11/22 09:12:34;;;;;;;7.07;2.08;;;;;;;-142.75;84.35;78525.47;4981594;28;20031;-66
2021/11/22 09:14:59;;;;;;;7.68;1.90;;;;;;;-142.75;85.22;78519.56;4979181;28;20895;-65
2021/11/22 09:17:24;;;;;;;5.17;1.80;;;;;;;-142.75;84.79;78503.81;4987834;28;20453;-66
2021/11/22 09:19:50;;;;;;;9.27;1.90;;;;;;;-142.75;84.63;78501.84;4987206;28;20266;-66
2021/11/22 09:22:15;;;;;;;4.00;1.25;;;;;;;-142.75;84.59;78495.94;4987532;28;20069;-67
2021/11/22 09:24:42;;;;;;;7.90;1.85;;;;;;;-142.75;85.05;78488.03;4987914;28;20033;-66
2021/11/22 09:27:08;;;;;;;6.50;1.60;;;;;;;-142.75;84.99;78472.28;4986376;28;20039;-66
2021/11/22 09:29:34;;;;;;;5.00;1.30;;;;;;;-142.75;85.00;78480.16;4987700;28;20030;-67
2021/11/22 09:31:59;;;;;;;;;;;;;;;-142.75;84.80;78462.44;4987553;28;20054;-66
2021/11/22 09:34:25;;;;;;;7.10;1.30;;;;;;;-142.75;84.45;78425.03;4986179;28;19955;-67
2021/11/22 09:36:50;;;;;;;6.45;1.23;;;;;;;-142.75;83.54;78407.31;4987612;28;20071;-67
2021/11/22 09:39:18;;;;;;;10.45;2.30;;;;;;;-142.75;82.44;78381.69;4986663;28;20462;-66
2021/11/22 09:41:46;;;;;;;5.05;1.50;;;;;;;-142.75;82.15;78373.81;4986688;28;20037;-66
2021/11/22 09:44:11;;;;;;;4.85;1.55;;;;;;;-142.75;81.17;78346.25;4986356;28;20026;-66
2021/11/22 09:46:36;;;;;;;5.07;1.63;;;;;;;-142.75;80.04;78322.63;4987318;28;20034;-66
2021/11/22 09:49:02;;;;;;;6.80;1.63;;;;;;;-142.75;79.01;78312.78;4987598;28;20442;-66
2021/11/22 09:51:29;;;;;;;;;;;;;;;-142.75;78.96;78302.94;4985859;28;20030;-64
2021/11/22 09:53:54;;;;;;;4.65;1.30;;;;;;;-142.75;78.77;78302.94;4987298;28;19925;-66
2021/11/22 09:56:20;;;;;;;5.70;1.00;;;;;;;-142.75;78.53;78279.28;4987196;28;20026;-67
2021/11/22 09:58:45;;;;;;;7.93;1.42;;;;;;;-142.75;78.31;78291.09;4987713;28;20034;-66
2021/11/22 10:01:14;;;;;;;5.47;1.40;;;;;;;-142.75;78.33;78291.09;4987361;28;20038;-67
2021/11/22 10:03:41;;;;;;;5.30;1.55;;;;;;;-142.75;78.08;78293.06;4990019;28;20030;-67
2021/11/22 10:06:06;;;;;;;7.20;1.52;;;;;;;-142.75;77.43;78237.94;4987521;28;20430;-67
2021/11/22 10:08:41;;;;;;;8.30;1.33;;;;;;;-142.75;76.13;78222.19;4985261;28;20026;-67
2021/11/22 10:11:09;;;;;;;6.75;1.58;;;;;;;-142.75;75.97;78212.34;4986449;28;20056;-67
2021/11/22 10:13:40;;;;;;;9.00;1.52;;;;;;;-142.75;75.35;78190.69;4985699;28;20456;-67
2021/11/22 10:16:11;;;;;;;7.70;1.42;;;;;;;-142.75;74.93;78206.44;4986900;28;20037;-67
2021/11/22 10:18:53;;;;;;;8.70;1.30;;;;;;;-142.75;74.29;78178.84;4986955;28;20031;-67
2021/11/22 10:21:22;;;;;;;8.07;1.13;;;;;;;-142.75;74.59;78178.84;4986607;28;20426;-67
2021/11/22 10:23:51;;;;;;;6.55;1.30;;;;;;;-142.75;74.33;78145.38;4986815;28;20030;-67
2021/11/22 10:26:17;;;;;;;9.68;1.50;;;;;;;-142.75;74.66;78188.72;4986841;28;20442;-67
2021/11/22 10:28:55;;;;;;;10.55;1.13;;;;;;;-142.75;74.31;78180.81;4986763;28;20080;-67
2021/11/22 10:31:27;;;;;;;9.63;1.48;;;;;;;-142.75;74.18;78172.94;4986032;28;20038;-67
2021/11/22 10:33:56;;;;;;;5.22;1.50;;;;;;;-142.75;74.28;78170.97;4986388;28;20026;-67
2021/11/22 10:36:24;;;;;;;6.78;1.20;;;;;;;-142.75;73.93;78131.59;4986414;28;20054;-67
2021/11/22 10:38:52;;;;;;;3.95;0.75;;;;;;;-142.75;70.14;78125.69;4985200;28;20072;-67
2021/11/22 10:41:20;;;;;;;3.28;0.40;;;;;;;-142.75;68.12;78129.63;4986137;28;20035;-67
2021/11/22 10:43:53;;;;;;;2.22;0.52;;;;;;;-142.75;68.37;78123.72;4985346;28;20050;-67
2021/11/22 10:46:27;;;;;;;4.45;0.70;;;;;;;-142.75;66.56;78060.72;4984520;28;20034;-67
2021/11/22 10:49:05;;;;;;;4.07;0.80;;;;;;;-142.75;65.28;78052.81;4982880;28;20458;-67
2021/11/22 10:51:38;;;;;;;1.65;0.40;;;;;;;-142.75;63.45;78001.63;4985562;28;20114;-67
2021/11/22 10:54:06;;;;;;;2.45;0.40;;;;;;;-142.75;63.39;78060.72;4986611;28;20030;-67
2021/11/22 10:56:41;;;;;;;2.97;0.70;;;;;;;-142.75;64.07;78050.84;4986226;28;20046;-67
2021/11/22 10:59:09;;;;;;;4.35;0.52;;;;;;;-142.75;61.26;78027.22;4984617;28;20042;-66
2021/11/22 11:01:54;;;;;;;5.75;0.95;;;;;;;-142.75;63.14;78019.34;4985753;28;20026;-67
2021/11/22 11:04:23;;;;;;;5.70;0.50;;;;;;;-142.75;63.22;78052.81;4986320;28;20037;-68
2021/11/22 11:06:53;;;;;;;3.55;0.50;;;;;;;-142.75;64.81;78044.94;4986670;28;20419;-67
2021/11/22 11:09:27;;;;;;;6.28;0.80;;;;;;;-142.75;64.16;78082.38;4986758;28;20083;-66